メインページ
METAR-TAF:

METAR-TAF

空港 :

Auburn/Lewiston Municipal Airport

オーバーン / ルイストン, メイン州, アメリカ合衆国

緯度: 44-03N, 経度: 070-17W, 海抜: 88m

現時点の気象観測

当レポートは14分前の15:56(UTC)に作成
無風
気温 -8°C
湿度 44%
気圧 1031 hPa
視程: 16.1km
晴天

METAR: KLEW 181556Z AUTO 00000KT 10SM CLR M08/M18 A3046 RMK AO2 SLP328 T10781178 FZRANO

時間: 11:10 (16:10 UTC)


TAF: 見つかりません

4,000以上の空港の気象観測と天気予報(METAR報とTAF報)

利用可能な観測所は地図上に黄色い丸と赤い丸で示す。

丸の上にカーソルを重ねると観測所名を参照できる。

次にクリックすると気象観測と天気予報を参照できる。

マップの切り替え:黒色「×」印の緑ボタンをクリックして拡大、「-」印の緑ボタンをクリックして縮小、緑色の三角印をクリックして隣りの地図に切り替え


METAR-TAF: